메인 페이지
METAR-TAF:

METAR-TAF

공항 :

나소, 바하마

위도: 25-03N, 경도: 077-28W, 고도: 3m

현재 날씨관측

예보는 27분 전, 07:00시(UTC)에 발표되었습니다.
여러 방향의 바람 1kt
온도 19°C
습도 94%
기압 1018 hPa
시정 10km 이상
고도 1800ft 상공 구름 조금
고도 8000ft 상공 구름 많음

METAR: MYNN 210700Z VRB01KT 9999 FEW018 BKN080 19/18 A3005

시각: 03:27 (07:27 UTC)

예보

예보는 3 시간 57분 전, 03:30시(UTC)에 발표되었습니다.
예보 대상 시간: 21일 06시부터 22일 06시까지 (UTC)
북서5kt
시정 10km 이상
고도 2000ft 상공 구름 조금
고도 4000ft 상공 구름 많음
전환 중
21일 13시부터 21일 15시까지 (UTC)
북서10kt
고도 2000ft 상공 구름 보통

TAF: MYNN 210330Z 2106/2206 31005KT 9999 FEW020 BKN040 BECMG 2113/2115 31010KT SCT020

4,000개 이상의 공항 관측 자료 및 예보 (METAR 및 TAF 보고).

지도상에서 검색 가능한 기상관측소가 노란 점과 빨간 점으로 표시되어 있습니다.

기상관측소 명을 보려면 표시 위로 마우스를 이동하세요.

날씨 관측과 예보를 보려면 클릭하세요.

지도 변경 : 확대하려면 엑스 표시가 있는 녹색 버튼, 축소하려면 빼기 표시가 있는 녹색 버튼, 다음 페이지의 지도를 보려면 녹색 화살표를 클릭하세요.


METAR-TAF: